createdAt,value
2024-01-25T00:01:01.061Z,61.36
2024-01-25T00:03:28.640Z,61.43
2024-01-25T00:05:56.500Z,61.36
2024-01-25T00:08:24.186Z,61.12
2024-01-25T00:10:52.364Z,61.26
2024-01-25T00:13:20.398Z,61.22
2024-01-25T00:15:48.309Z,61.44
2024-01-25T00:18:16.206Z,61.55
2024-01-25T00:20:43.942Z,61.88
2024-01-25T00:23:11.793Z,62.09
2024-01-25T00:25:39.362Z,62.36
2024-01-25T00:28:06.967Z,62.54
2024-01-25T00:30:34.713Z,62.65
2024-01-25T00:33:02.444Z,62.80
2024-01-25T00:35:30.334Z,62.49
2024-01-25T00:37:58.078Z,62.60
2024-01-25T00:40:26.173Z,61.93
2024-01-25T00:42:53.926Z,62.01
2024-01-25T00:45:21.692Z,61.58
2024-01-25T00:47:49.299Z,61.40
2024-01-25T00:50:18.866Z,61.60
2024-01-25T00:52:46.610Z,61.66
2024-01-25T00:55:14.513Z,61.28
2024-01-25T00:57:42.615Z,61.36
2024-01-25T01:00:10.320Z,60.79
2024-01-25T01:02:37.884Z,60.54
2024-01-25T01:05:05.530Z,59.72
2024-01-25T01:07:33.341Z,59.68
2024-01-25T01:10:01.087Z,59.32
2024-01-25T01:12:28.760Z,59.14
2024-01-25T01:14:56.505Z,58.97
2024-01-25T01:17:24.143Z,58.83
2024-01-25T01:19:52.298Z,58.72
2024-01-25T01:22:20.224Z,58.84
2024-01-25T01:24:47.916Z,58.51
2024-01-25T01:27:15.508Z,58.14
2024-01-25T01:29:43.078Z,58.24
2024-01-25T01:32:10.739Z,57.76
2024-01-25T01:34:38.536Z,57.83
2024-01-25T01:37:06.285Z,57.59
2024-01-25T01:39:33.858Z,57.09
2024-01-25T01:42:01.888Z,57.30
2024-01-25T01:44:29.452Z,56.94
2024-01-25T01:46:57.115Z,57.24
2024-01-25T01:49:25.207Z,56.69
2024-01-25T01:51:53.123Z,56.57
2024-01-25T01:54:20.813Z,56.47
2024-01-25T01:56:48.470Z,56.39
2024-01-25T01:59:16.461Z,56.13
2024-01-25T02:01:44.172Z,56.23
2024-01-25T02:04:12.195Z,56.40
2024-01-25T02:06:40.038Z,56.60
2024-01-25T02:09:07.925Z,56.69
2024-01-25T02:11:35.886Z,56.61
2024-01-25T02:14:03.642Z,56.75
2024-01-25T02:16:31.370Z,56.53
2024-01-25T02:18:59.399Z,56.56
2024-01-25T02:21:27.539Z,56.50
2024-01-25T02:23:55.214Z,56.10
2024-01-25T02:26:23.163Z,56.59
2024-01-25T02:28:50.837Z,56.61
2024-01-25T02:31:18.757Z,56.39
2024-01-25T02:33:46.676Z,56.39
2024-01-25T02:36:14.321Z,56.04
2024-01-25T02:38:42.017Z,56.39
2024-01-25T02:41:09.544Z,56.58
2024-01-25T02:43:38.500Z,56.37
2024-01-25T02:46:06.376Z,56.54
2024-01-25T02:48:34.291Z,56.17
2024-01-25T02:51:02.157Z,56.15
2024-01-25T02:53:29.592Z,56.04
2024-01-25T02:55:57.156Z,56.58
2024-01-25T02:58:24.740Z,56.23
2024-01-25T03:00:52.581Z,56.19
2024-01-25T03:03:20.651Z,55.86
2024-01-25T03:05:48.463Z,56.08
2024-01-25T03:08:16.277Z,56.09
2024-01-25T03:10:43.844Z,56.09
2024-01-25T03:13:11.513Z,56.20
2024-01-25T03:15:39.108Z,56.01
2024-01-25T03:18:06.847Z,56.43
2024-01-25T03:20:34.497Z,56.85
2024-01-25T03:23:02.147Z,56.82
2024-01-25T03:25:30.047Z,57.06
2024-01-25T03:27:57.647Z,57.27
2024-01-25T03:30:25.447Z,57.60
2024-01-25T03:32:53.082Z,57.48
2024-01-25T03:35:20.884Z,57.83
2024-01-25T03:37:48.632Z,57.76
2024-01-25T03:40:16.250Z,57.57
2024-01-25T03:42:54.232Z,57.91
2024-01-25T03:45:31.004Z,58.42
2024-01-25T03:47:58.614Z,58.07
2024-01-25T03:50:26.472Z,57.85
2024-01-25T03:52:54.156Z,58.13
2024-01-25T03:55:21.689Z,58.38
2024-01-25T03:57:49.410Z,58.21
2024-01-25T04:00:16.945Z,58.14
2024-01-25T04:02:44.602Z,58.01
2024-01-25T04:05:12.174Z,58.01
2024-01-25T04:07:39.722Z,58.32
2024-01-25T04:10:07.418Z,57.86
2024-01-25T04:12:35.429Z,57.60
2024-01-25T04:15:03.125Z,57.80
2024-01-25T04:17:30.814Z,57.47
2024-01-25T04:19:58.542Z,57.39
2024-01-25T04:22:26.469Z,57.30
2024-01-25T04:24:54.501Z,57.30
2024-01-25T04:27:22.142Z,57.06
2024-01-25T04:29:49.901Z,56.99
2024-01-25T04:32:18.295Z,57.35
2024-01-25T04:34:46.168Z,56.89
2024-01-25T04:37:14.135Z,57.06
2024-01-25T04:39:41.869Z,57.27
2024-01-25T04:42:09.737Z,57.13
2024-01-25T04:44:37.507Z,57.64
2024-01-25T04:47:05.485Z,57.67
2024-01-25T04:49:33.079Z,58.02
2024-01-25T04:52:00.980Z,58.15
2024-01-25T04:54:28.674Z,58.33
2024-01-25T04:56:56.331Z,58.79
2024-01-25T04:59:23.899Z,59.33
2024-01-25T05:01:51.631Z,59.81
2024-01-25T05:04:19.813Z,60.25
2024-01-25T05:06:47.868Z,60.79
2024-01-25T05:09:15.560Z,61.20
2024-01-25T05:11:43.118Z,61.55
2024-01-25T05:14:10.792Z,61.70
2024-01-25T05:16:38.565Z,62.11
2024-01-25T05:19:06.555Z,62.28
2024-01-25T05:21:34.433Z,62.07
2024-01-25T05:24:02.181Z,62.04
2024-01-25T05:26:30.136Z,61.99
2024-01-25T05:28:57.789Z,61.87
2024-01-25T05:31:25.524Z,61.56
2024-01-25T05:33:53.470Z,61.46
2024-01-25T05:36:21.178Z,61.29
2024-01-25T05:38:48.740Z,61.15
2024-01-25T05:41:16.499Z,61.58
2024-01-25T05:43:44.152Z,61.18
2024-01-25T05:46:11.792Z,61.24
2024-01-25T05:48:39.923Z,60.99
2024-01-25T05:51:07.764Z,60.61
2024-01-25T05:53:35.111Z,59.99
2024-01-25T05:56:02.766Z,60.48
2024-01-25T05:58:30.445Z,60.37
2024-01-25T06:00:58.378Z,59.88
2024-01-25T06:03:26.090Z,59.87
2024-01-25T06:05:53.972Z,60.10
2024-01-25T06:08:21.877Z,59.92
2024-01-25T06:10:49.970Z,60.03
2024-01-25T06:13:17.706Z,60.18
2024-01-25T06:15:45.600Z,59.59
2024-01-25T06:18:13.398Z,59.71
2024-01-25T06:20:40.944Z,59.79
2024-01-25T06:23:08.682Z,59.45
2024-01-25T06:25:36.387Z,60.27
2024-01-25T06:28:04.285Z,60.52
2024-01-25T06:30:31.928Z,60.23
2024-01-25T06:32:59.787Z,60.55
2024-01-25T06:35:28.018Z,61.22
2024-01-25T06:37:55.797Z,61.98
2024-01-25T06:40:23.514Z,62.13
2024-01-25T06:42:51.249Z,62.49
2024-01-25T06:45:18.899Z,62.46
2024-01-25T06:47:46.550Z,62.29
2024-01-25T06:50:14.308Z,62.35
2024-01-25T06:52:42.068Z,62.58
2024-01-25T06:55:09.803Z,62.67
2024-01-25T06:57:37.626Z,63.04
2024-01-25T07:00:05.268Z,62.82
2024-01-25T07:02:33.496Z,62.75
2024-01-25T07:05:01.502Z,62.38
2024-01-25T07:07:29.705Z,62.42
2024-01-25T07:09:57.380Z,62.51
2024-01-25T07:12:25.093Z,62.12
2024-01-25T07:14:52.860Z,62.17
2024-01-25T07:17:21.343Z,61.97
2024-01-25T07:19:49.280Z,62.04
2024-01-25T07:22:17.215Z,61.59
2024-01-25T07:24:45.058Z,61.57
2024-01-25T07:27:12.610Z,61.46
2024-01-25T07:29:40.184Z,61.15
2024-01-25T07:32:07.729Z,61.06
2024-01-25T07:34:35.971Z,60.73
2024-01-25T07:37:03.701Z,60.22
2024-01-25T07:39:31.526Z,60.41
2024-01-25T07:41:59.695Z,60.45
2024-01-25T07:44:27.365Z,60.07
2024-01-25T07:46:55.028Z,60.08
2024-01-25T07:49:22.871Z,60.02
2024-01-25T07:51:50.746Z,59.96
2024-01-25T07:54:18.421Z,59.31
2024-01-25T07:56:46.075Z,59.44
2024-01-25T07:59:13.741Z,59.49
2024-01-25T08:01:41.445Z,59.40
2024-01-25T08:04:09.386Z,59.54
2024-01-25T08:06:37.155Z,58.75
2024-01-25T08:09:04.792Z,58.94
2024-01-25T08:11:32.571Z,58.80
2024-01-25T08:14:00.206Z,59.06
2024-01-25T08:16:28.140Z,59.29
2024-01-25T08:18:56.014Z,58.90
2024-01-25T08:21:23.916Z,58.86
2024-01-25T08:23:51.792Z,58.94
2024-01-25T08:26:19.668Z,59.21
2024-01-25T08:28:47.218Z,58.84
2024-01-25T08:31:14.986Z,58.30
2024-01-25T08:33:43.220Z,58.13
2024-01-25T08:36:11.158Z,58.18
2024-01-25T08:38:38.789Z,58.22
2024-01-25T08:41:06.357Z,58.11
2024-01-25T08:43:34.005Z,58.22
2024-01-25T08:46:01.742Z,58.52
2024-01-25T08:48:29.644Z,57.93
2024-01-25T08:50:57.434Z,58.29
2024-01-25T08:53:25.162Z,57.90
2024-01-25T08:55:53.134Z,57.88
2024-01-25T08:58:20.895Z,57.92
2024-01-25T09:00:48.768Z,58.28
2024-01-25T09:03:16.423Z,58.18
2024-01-25T09:05:44.174Z,58.40
2024-01-25T09:08:12.029Z,58.48
2024-01-25T09:10:39.933Z,58.46
2024-01-25T09:13:07.933Z,58.86
2024-01-25T09:15:35.775Z,58.68
2024-01-25T09:18:03.908Z,58.83
2024-01-25T09:20:31.886Z,58.60
2024-01-25T09:22:59.768Z,58.87
2024-01-25T09:25:27.482Z,58.97
2024-01-25T09:27:56.846Z,59.17
2024-01-25T09:30:24.896Z,58.90
2024-01-25T09:32:52.658Z,58.77
2024-01-25T09:35:20.530Z,58.57
2024-01-25T09:37:48.406Z,58.69
2024-01-25T09:40:16.749Z,58.59
2024-01-25T09:42:44.806Z,58.69
2024-01-25T09:45:13.735Z,58.43
2024-01-25T09:47:41.319Z,58.29
2024-01-25T09:50:09.820Z,58.95
2024-01-25T09:52:37.832Z,58.28
2024-01-25T09:55:05.835Z,57.73
2024-01-25T09:57:34.001Z,57.65
2024-01-25T10:00:01.640Z,57.53
2024-01-25T10:02:29.394Z,57.13
2024-01-25T10:04:57.750Z,57.20
2024-01-25T10:07:25.712Z,56.92
2024-01-25T10:09:55.886Z,56.31
2024-01-25T10:12:23.540Z,55.85
2024-01-25T10:14:51.095Z,55.79
2024-01-25T10:17:18.814Z,56.27
2024-01-25T10:19:47.051Z,55.90
2024-01-25T10:22:16.507Z,56.14
2024-01-25T10:24:44.927Z,55.22
2024-01-25T10:27:12.677Z,55.48
2024-01-25T10:29:40.410Z,55.95
2024-01-25T10:32:08.719Z,56.80
2024-01-25T10:34:36.559Z,56.82
2024-01-25T10:37:04.302Z,56.51
2024-01-25T10:39:32.222Z,56.54
2024-01-25T10:42:00.088Z,56.33
2024-01-25T10:44:28.158Z,56.53
2024-01-25T10:46:55.713Z,56.96
2024-01-25T10:49:23.455Z,56.70
2024-01-25T10:51:51.320Z,56.75
2024-01-25T10:54:19.102Z,57.22
2024-01-25T10:56:46.666Z,57.46
2024-01-25T10:59:14.525Z,57.65
2024-01-25T11:01:42.205Z,58.20
2024-01-25T11:04:10.250Z,58.49
2024-01-25T11:06:38.004Z,58.67
2024-01-25T11:09:05.813Z,58.89
2024-01-25T11:11:33.360Z,59.47
2024-01-25T11:14:01.035Z,59.80
2024-01-25T11:16:28.736Z,60.47
2024-01-25T11:18:56.656Z,60.42
2024-01-25T11:21:24.839Z,60.49
2024-01-25T11:23:54.375Z,60.05
2024-01-25T11:26:22.937Z,59.71
2024-01-25T11:28:50.486Z,59.86
2024-01-25T11:31:18.226Z,60.19
2024-01-25T11:33:45.977Z,60.65
2024-01-25T11:36:13.788Z,60.65
2024-01-25T11:38:41.362Z,59.64
2024-01-25T11:41:09.005Z,59.66
2024-01-25T11:43:36.464Z,59.65
2024-01-25T11:46:04.479Z,59.54
2024-01-25T11:48:32.225Z,60.23
2024-01-25T11:51:00.260Z,59.91
2024-01-25T11:53:27.823Z,59.84
2024-01-25T11:55:55.479Z,60.31
2024-01-25T11:58:23.146Z,60.44
2024-01-25T12:00:51.128Z,60.35
2024-01-25T12:03:20.468Z,60.07
2024-01-25T12:05:48.155Z,60.38
2024-01-25T12:08:16.067Z,60.55
2024-01-25T12:10:43.988Z,60.41
2024-01-25T12:13:11.718Z,60.57
2024-01-25T12:15:39.462Z,60.68
2024-01-25T12:18:07.210Z,60.51
2024-01-25T12:20:35.084Z,60.54
2024-01-25T12:23:02.821Z,60.63
2024-01-25T12:25:30.693Z,60.89
2024-01-25T12:27:58.360Z,61.30
2024-01-25T12:30:25.921Z,61.37
2024-01-25T12:32:53.660Z,61.86
2024-01-25T12:35:21.634Z,62.48
2024-01-25T12:37:49.621Z,62.60
2024-01-25T12:40:18.245Z,62.04
2024-01-25T12:42:45.917Z,62.11
2024-01-25T12:45:13.847Z,62.66
2024-01-25T12:47:42.062Z,62.20
2024-01-25T12:50:10.371Z,61.60
2024-01-25T12:52:38.046Z,61.36
2024-01-25T12:55:05.695Z,61.29
2024-01-25T12:57:33.403Z,60.88
2024-01-25T13:00:01.125Z,61.10
2024-01-25T13:02:29.093Z,61.21
2024-01-25T13:04:56.981Z,61.04
2024-01-25T13:07:24.829Z,61.31
2024-01-25T13:09:52.420Z,61.41
2024-01-25T13:12:20.081Z,61.40
2024-01-25T13:14:47.715Z,61.42
2024-01-25T13:17:15.375Z,61.35
2024-01-25T13:19:43.069Z,60.99
2024-01-25T13:22:10.797Z,61.12
2024-01-25T13:24:38.473Z,61.10
2024-01-25T13:27:06.431Z,60.89
2024-01-25T13:29:34.092Z,60.67
2024-01-25T13:32:01.644Z,60.58
2024-01-25T13:34:29.408Z,61.07
2024-01-25T13:36:57.106Z,60.95
2024-01-25T13:39:24.905Z,60.88
2024-01-25T13:41:54.273Z,60.65
2024-01-25T13:44:21.899Z,60.45
2024-01-25T13:46:49.457Z,60.76
2024-01-25T13:49:16.994Z,60.74
2024-01-25T13:51:45.938Z,60.65
2024-01-25T13:54:14.721Z,60.79
2024-01-25T13:56:42.259Z,60.72
2024-01-25T13:59:09.816Z,60.76
2024-01-25T14:01:37.403Z,61.00
2024-01-25T14:04:05.201Z,60.91
2024-01-25T14:06:33.080Z,60.57
2024-01-25T14:09:01.182Z,60.51
2024-01-25T14:11:28.848Z,60.44
2024-01-25T14:13:56.514Z,60.25
2024-01-25T14:16:25.011Z,59.77
2024-01-25T14:18:52.972Z,60.14
2024-01-25T14:21:20.847Z,60.07
2024-01-25T14:23:48.487Z,60.53
2024-01-25T14:26:16.652Z,60.28
2024-01-25T14:28:44.313Z,60.57
2024-01-25T14:31:12.390Z,60.66
2024-01-25T14:33:43.083Z,61.11
2024-01-25T14:36:12.972Z,61.40
2024-01-25T14:38:40.487Z,61.38
2024-01-25T14:41:08.029Z,61.39
2024-01-25T14:43:35.517Z,61.39
2024-01-25T14:46:03.259Z,60.92
2024-01-25T14:48:31.005Z,61.23
2024-01-25T14:50:58.810Z,61.34
2024-01-25T14:53:26.386Z,60.97
2024-01-25T14:55:53.933Z,60.97
2024-01-25T14:58:21.499Z,60.99
2024-01-25T15:00:49.152Z,61.14
2024-01-25T15:03:16.879Z,61.06
2024-01-25T15:05:44.603Z,61.32
2024-01-25T15:08:12.346Z,61.51
2024-01-25T15:10:39.898Z,61.80
2024-01-25T15:13:07.672Z,61.99
2024-01-25T15:15:35.788Z,62.15
2024-01-25T15:18:03.734Z,62.53
2024-01-25T15:20:31.483Z,62.42
2024-01-25T15:22:59.105Z,62.34
2024-01-25T15:25:26.693Z,62.28
2024-01-25T15:27:54.493Z,62.19
2024-01-25T15:30:22.316Z,62.23
2024-01-25T15:32:50.163Z,62.28
2024-01-25T15:35:17.980Z,62.00
2024-01-25T15:37:45.819Z,61.97
2024-01-25T15:40:14.532Z,62.07
2024-01-25T15:42:43.087Z,61.96
2024-01-25T15:45:10.727Z,61.60
2024-01-25T15:47:38.528Z,61.85
2024-01-25T15:50:06.229Z,61.73
2024-01-25T15:52:34.530Z,61.82
2024-01-25T15:55:02.814Z,62.06
2024-01-25T15:57:32.658Z,61.83
2024-01-25T16:00:01.203Z,62.21
2024-01-25T16:02:28.975Z,62.14
2024-01-25T16:04:56.554Z,62.13
2024-01-25T16:07:24.179Z,62.42
2024-01-25T16:09:52.009Z,62.47
2024-01-25T16:12:19.751Z,62.40
2024-01-25T16:14:47.387Z,62.48
2024-01-25T16:17:15.271Z,62.60
2024-01-25T16:19:43.160Z,62.65
2024-01-25T16:22:10.883Z,62.93
2024-01-25T16:24:38.560Z,63.17
2024-01-25T16:27:06.104Z,62.87
2024-01-25T16:29:33.770Z,62.98
2024-01-25T16:32:01.484Z,63.21
2024-01-25T16:34:29.335Z,63.27
2024-01-25T16:36:57.187Z,63.24
2024-01-25T16:39:25.117Z,63.15
2024-01-25T16:41:52.689Z,63.46
2024-01-25T16:44:20.243Z,63.38
2024-01-25T16:46:47.803Z,63.46
2024-01-25T16:49:15.369Z,63.41
2024-01-25T16:51:43.056Z,63.39
2024-01-25T16:54:10.786Z,63.44
2024-01-25T16:56:38.346Z,63.60
2024-01-25T16:59:06.203Z,63.82
2024-01-25T17:01:33.987Z,63.99
2024-01-25T17:04:01.754Z,64.57
2024-01-25T17:06:29.680Z,64.28
2024-01-25T17:08:57.417Z,64.44
2024-01-25T17:11:25.138Z,64.53
2024-01-25T17:13:52.797Z,64.85
2024-01-25T17:16:20.448Z,64.60
2024-01-25T17:18:48.090Z,64.52
2024-01-25T17:21:16.221Z,64.69
2024-01-25T17:23:43.651Z,64.74
2024-01-25T17:26:11.204Z,65.15
2024-01-25T17:28:38.863Z,64.83
2024-01-25T17:31:06.423Z,65.24
2024-01-25T17:33:34.271Z,65.46
2024-01-25T17:36:02.075Z,65.89
2024-01-25T17:38:29.621Z,65.47
2024-01-25T17:40:57.280Z,65.56
2024-01-25T17:43:25.906Z,65.28
2024-01-25T17:45:54.089Z,65.10
2024-01-25T17:48:22.467Z,64.63
2024-01-25T17:50:50.278Z,64.67
2024-01-25T17:53:17.935Z,64.39
2024-01-25T17:55:45.501Z,64.61
2024-01-25T17:58:13.171Z,64.75
2024-01-25T18:00:40.789Z,65.27
2024-01-25T18:03:08.594Z,64.65
2024-01-25T18:05:36.387Z,64.83
2024-01-25T18:08:04.529Z,64.61
2024-01-25T18:10:32.088Z,64.29
2024-01-25T18:13:00.278Z,64.46
2024-01-25T18:15:28.279Z,64.54
2024-01-25T18:17:55.924Z,64.48
2024-01-25T18:20:23.702Z,64.45
2024-01-25T18:22:51.318Z,64.61
2024-01-25T18:25:18.979Z,64.97
2024-01-25T18:27:46.704Z,64.81
2024-01-25T18:30:14.752Z,64.78
2024-01-25T18:32:42.489Z,64.51
2024-01-25T18:35:10.180Z,64.85
2024-01-25T18:37:37.814Z,64.74
2024-01-25T18:40:05.527Z,64.96
2024-01-25T18:42:33.246Z,65.17
2024-01-25T18:45:01.086Z,65.34
2024-01-25T18:47:28.751Z,65.33
2024-01-25T18:49:56.832Z,65.44
2024-01-25T18:52:24.704Z,65.43
2024-01-25T18:54:52.393Z,65.40
2024-01-25T18:57:20.067Z,65.40
2024-01-25T18:59:47.785Z,65.39
2024-01-25T19:02:15.353Z,65.76
2024-01-25T19:04:43.140Z,65.86
2024-01-25T19:07:10.965Z,66.09
2024-01-25T19:09:39.063Z,66.18
2024-01-25T19:12:06.799Z,65.98
2024-01-25T19:14:34.378Z,66.13
2024-01-25T19:17:02.012Z,66.40
2024-01-25T19:19:29.736Z,66.52
2024-01-25T19:21:57.577Z,66.61
2024-01-25T19:24:25.496Z,66.39
2024-01-25T19:26:53.076Z,66.49
2024-01-25T19:29:20.742Z,66.53
2024-01-25T19:31:48.606Z,66.48
2024-01-25T19:34:16.397Z,66.52
2024-01-25T19:36:44.166Z,66.53
2024-01-25T19:39:11.890Z,66.76
2024-01-25T19:41:39.454Z,66.97
2024-01-25T19:44:07.121Z,66.76
2024-01-25T19:46:35.281Z,66.83
2024-01-25T19:49:03.688Z,67.02
2024-01-25T19:51:31.334Z,67.25
2024-01-25T19:53:58.701Z,67.50
2024-01-25T19:56:26.241Z,67.49
2024-01-25T19:58:53.919Z,67.45
2024-01-25T20:01:21.673Z,67.79
2024-01-25T20:03:49.411Z,67.80
2024-01-25T20:06:17.333Z,68.30
2024-01-25T20:08:44.951Z,68.19
2024-01-25T20:11:12.516Z,68.23
2024-01-25T20:13:39.879Z,68.29
2024-01-25T20:16:07.572Z,68.57
2024-01-25T20:18:35.366Z,68.75
2024-01-25T20:21:03.267Z,68.85
2024-01-25T20:23:31.127Z,69.09
2024-01-25T20:25:58.809Z,69.31
2024-01-25T20:28:27.235Z,69.76
2024-01-25T20:30:55.169Z,69.66
2024-01-25T20:33:22.964Z,69.72
2024-01-25T20:35:50.580Z,69.81
2024-01-25T20:38:18.647Z,69.58
2024-01-25T20:40:46.309Z,69.61
2024-01-25T20:43:13.985Z,69.62
2024-01-25T20:45:41.662Z,69.71
2024-01-25T20:48:09.494Z,69.81
2024-01-25T20:50:39.116Z,69.93
2024-01-25T20:53:07.554Z,70.27
2024-01-25T20:55:35.756Z,70.28
2024-01-25T20:58:03.399Z,70.29
2024-01-25T21:00:31.266Z,70.30
2024-01-25T21:02:59.060Z,70.26
2024-01-25T21:05:26.635Z,70.44
2024-01-25T21:07:54.271Z,70.44
2024-01-25T21:10:21.845Z,70.71
2024-01-25T21:12:49.552Z,70.46
2024-01-25T21:15:17.186Z,70.71
2024-01-25T21:17:45.264Z,70.61
2024-01-25T21:20:12.893Z,70.45
2024-01-25T21:22:40.553Z,70.25
2024-01-25T21:25:11.314Z,70.26
2024-01-25T21:27:39.842Z,70.24
2024-01-25T21:30:07.657Z,70.03
2024-01-25T21:32:35.465Z,70.02
2024-01-25T21:35:03.353Z,69.72
2024-01-25T21:37:31.121Z,69.58
2024-01-25T21:39:59.135Z,69.65
2024-01-25T21:42:27.000Z,69.37
2024-01-25T21:44:54.742Z,69.24
2024-01-25T21:47:22.489Z,69.10
2024-01-25T21:49:50.655Z,68.88
2024-01-25T21:52:21.242Z,69.03
2024-01-25T21:54:50.466Z,69.16
2024-01-25T21:57:18.620Z,69.53
2024-01-25T21:59:46.734Z,69.45
2024-01-25T22:02:14.391Z,69.52
2024-01-25T22:04:42.111Z,69.60
2024-01-25T22:07:09.981Z,69.75
2024-01-25T22:09:37.806Z,69.88
2024-01-25T22:12:05.348Z,69.88
2024-01-25T22:14:33.013Z,69.85
2024-01-25T22:17:00.678Z,70.08
2024-01-25T22:19:28.520Z,70.00
2024-01-25T22:21:56.529Z,69.94
2024-01-25T22:24:24.221Z,69.82
2024-01-25T22:26:51.839Z,69.82
2024-01-25T22:29:19.903Z,69.95
2024-01-25T22:31:47.568Z,69.58
2024-01-25T22:34:15.358Z,69.57
2024-01-25T22:36:42.999Z,69.47
2024-01-25T22:39:10.667Z,69.40
2024-01-25T22:41:38.215Z,69.27
2024-01-25T22:44:05.871Z,69.15
2024-01-25T22:46:33.425Z,69.42
2024-01-25T22:49:01.170Z,69.09
2024-01-25T22:51:28.878Z,68.93
2024-01-25T22:53:56.317Z,68.86
2024-01-25T22:56:23.873Z,68.85
2024-01-25T22:58:51.745Z,68.85
2024-01-25T23:01:19.996Z,69.00
2024-01-25T23:03:47.702Z,69.13
2024-01-25T23:06:15.751Z,69.32
2024-01-25T23:08:43.297Z,69.23
2024-01-25T23:11:11.478Z,69.30
2024-01-25T23:13:39.138Z,69.37
2024-01-25T23:16:06.990Z,69.42
2024-01-25T23:18:34.796Z,69.30
2024-01-25T23:21:02.449Z,69.71
2024-01-25T23:23:30.209Z,69.81
2024-01-25T23:25:57.853Z,69.86
2024-01-25T23:28:25.412Z,70.03
2024-01-25T23:30:53.017Z,70.26
2024-01-25T23:33:21.042Z,70.62
2024-01-25T23:35:48.813Z,70.76
2024-01-25T23:38:16.472Z,71.21
2024-01-25T23:40:44.030Z,71.42
2024-01-25T23:43:12.011Z,71.46
2024-01-25T23:45:40.109Z,71.85
2024-01-25T23:48:08.022Z,71.70
2024-01-25T23:50:35.945Z,71.54
2024-01-25T23:53:03.989Z,71.65
2024-01-25T23:55:31.646Z,71.91
2024-01-25T23:57:59.597Z,71.93
